KGUY

Details ICAO KGUY
Name GUYMON MUNI
Region United States
Timezone America/Chicago (UTC-6.0)
Plans Departing 2
Arriving 2
Stats Elevation 3,123 ft / 952 m (AMSL)
Location 36.683265° -101.506356°
Runways 2
Magnetic Variation 6.125° E
Sunrise 2017-12-13 13:51:25 UTC / 2017-12-13 07:51:25 Local
Sunset 2017-12-13 23:32:08 UTC / 2017-12-13 17:32:08 Local
Advertisement - Login to hide

Runways

ID Width Length Bearing (true) Bearing (mag) Surface Threshold Offset Overrun Length
06 200 ft / 61 m 1,792 ft / 546 m 68.43° 62.30° Grass 0 ft / 0 m 0 ft / 0 m
18 100 ft / 30 m 5,912 ft / 1,802 m 186.09° 179.96° Asphalt 0 ft / 0 m 0 ft / 0 m
24 200 ft / 61 m 1,792 ft / 546 m 248.44° 242.31° Grass 0 ft / 0 m 0 ft / 0 m
36 100 ft / 30 m 5,912 ft / 1,802 m 6.09° 359.96° Asphalt 0 ft / 0 m 0 ft / 0 m

Map

Weather


0- 5 10 15 20 25 30 35+ Temperature / ° C

Clouds and Precipitation
Forecast for 2017-12-14 06:00 UTC. Updated an hour ago

Ground ~20,000 ft ~40,000 ft Winds

METAR

KGUY 140553Z AUTO 02006KT 10SM CLR 05/M08 A3004 RMK AO2 SLP158 T00501083 10094 20050 401720017 53012

TAF

TAF KGUY 140538Z 1406/1506 01008KT P6SM OVC300 FM141200 36012KT P6SM SCT070 OVC300 FM142300 34009KT P6SM SCT120 SCT300

Frequencies

Recorded 119.92 MHz ASOS
Unicom 122.70 MHz CTAF/UNICOM
Warning: Do not use this data for real-world aviation or navigation. No guarantee of current accuracy is given.